Time;durP1;ratioP1;P1;durP2;ratioP2;P2;SDS_P1;SDS_P2;PMS_P1;PMS_P2;Temp;Humidity;BMP_temperature;BMP_pressure;BME280_temperature;BME280_humidity;BME280_pressure;Samples;Min_cycle;Max_cycle;Signal;HPM_P1;HPM_P2
2022/10/05 00:01:42;;;;;;;16.52;9.00;;;12.00;88.60;;;;;;5054231;28;20068;-40
2022/10/05 00:04:18;;;;;;;15.27;7.75;;;11.90;88.40;;;;;;5053870;28;20033;-39
2022/10/05 00:06:49;;;;;;;10.13;6.90;;;11.80;88.60;;;;;;5053817;28;20496;-39
2022/10/05 00:09:19;;;;;;;20.92;7.07;;;11.90;88.80;;;;;;5054180;28;20035;-40
2022/10/05 00:11:46;;;;;;;9.15;6.80;;;11.90;88.70;;;;;;5053711;28;20417;-37
2022/10/05 00:14:26;;;;;;;14.65;7.32;;;12.00;88.70;;;;;;5052431;28;20025;-39
2022/10/05 00:16:52;;;;;;;12.40;7.03;;;12.00;88.50;;;;;;5054063;28;20025;-39
2022/10/05 00:19:28;;;;;;;10.48;6.93;;;12.00;88.40;;;;;;5053454;28;20048;-38
2022/10/05 00:22:14;;;;;;;15.43;8.32;;;12.10;88.50;;;;;;5053652;28;20025;-37
2022/10/05 00:24:40;;;;;;;14.77;8.00;;;12.20;88.30;;;;;;5053592;28;20025;-38
2022/10/05 00:27:26;;;;;;;13.43;6.47;;;12.20;88.00;;;;;;5053360;28;20500;-38
2022/10/05 00:29:56;;;;;;;10.95;7.55;;;12.20;88.00;;;;;;5053414;28;20020;-40
2022/10/05 00:32:22;;;;;;;13.00;7.70;;;12.30;87.70;;;;;;5053571;28;20052;-38
2022/10/05 00:34:48;;;;;;;12.38;6.60;;;12.30;87.50;;;;;;5053646;28;20064;-43
2022/10/05 00:37:13;;;;;;;11.45;6.72;;;12.30;87.60;;;;;;5053236;28;20496;-45
2022/10/05 00:39:40;;;;;;;13.73;7.47;;;12.20;87.60;;;;;;5053018;28;20052;-38
2022/10/05 00:42:24;;;;;;;10.20;6.15;;;12.20;87.80;;;;;;5053225;28;20025;-38
2022/10/05 00:45:12;;;;;;;17.73;6.13;;;12.30;87.70;;;;;;5053436;28;20025;-38
2022/10/05 00:47:46;;;;;;;12.70;6.45;;;12.30;87.70;;;;;;5053046;28;20484;-38
2022/10/05 00:50:26;;;;;;;9.68;5.85;;;12.30;87.70;;;;;;5053057;28;20021;-37
2022/10/05 00:53:13;;;;;;;9.65;6.82;;;12.50;87.30;;;;;;5053337;28;20017;-37
2022/10/05 00:56:02;;;;;;;12.57;7.25;;;12.60;87.00;;;;;;5053709;28;20155;-38
2022/10/05 00:58:46;;;;;;;7.88;5.63;;;12.70;86.50;;;;;;5053114;28;20036;-39
2022/10/05 01:01:22;;;;;;;12.52;5.32;;;12.80;86.10;;;;;;5053384;28;20013;-39
2022/10/05 01:04:10;;;;;;;11.15;5.28;;;12.70;86.40;;;;;;5053952;28;20025;-39
2022/10/05 01:07:02;;;;;;;14.02;7.93;;;12.80;86.30;;;;;;5053768;28;20369;-38
2022/10/05 01:09:49;;;;;;;8.88;6.30;;;12.80;86.20;;;;;;5052949;28;20108;-39
2022/10/05 01:12:18;;;;;;;7.97;5.38;;;12.80;86.00;;;;;;5052899;28;20059;-39
2022/10/05 01:15:15;;;;;;;10.40;6.15;;;12.80;86.20;;;;;;5052699;28;20053;-38
2022/10/05 01:17:55;;;;;;;8.77;5.43;;;12.80;86.10;;;;;;5051789;28;20048;-39
2022/10/05 01:20:39;;;;;;;13.55;6.35;;;12.80;86.10;;;;;;5052960;28;20087;-39
2022/10/05 01:23:29;;;;;;;14.25;4.90;;;12.80;86.10;;;;;;5052756;28;20021;-40
2022/10/05 01:26:28;;;;;;;9.55;6.65;;;12.80;86.30;;;;;;5052682;28;20535;-37
2022/10/05 01:29:05;;;;;;;10.30;5.07;;;12.80;86.40;;;;;;5054433;28;20033;-38
2022/10/05 01:31:39;;;;;;;10.25;5.22;;;12.80;86.40;;;;;;5052618;28;20052;-42
2022/10/05 01:34:30;;;;;;;7.38;5.50;;;12.90;86.40;;;;;;5053021;28;20400;-39
2022/10/05 01:37:19;;;;;;;12.85;5.72;;;12.80;86.50;;;;;;5052491;28;20017;-38
2022/10/05 01:39:44;;;;;;;18.63;6.07;;;12.80;86.50;;;;;;5053200;28;20385;-39
2022/10/05 01:42:16;;;;;;;9.60;5.40;;;12.90;86.40;;;;;;5055327;28;20017;-38
2022/10/05 01:44:54;;;;;;;9.88;5.47;;;13.00;86.30;;;;;;5057031;28;20025;-38
2022/10/05 01:47:44;;;;;;;11.88;6.43;;;13.00;86.20;;;;;;5057457;28;20085;-38
2022/10/05 01:50:15;;;;;;;9.23;5.72;;;13.00;86.40;;;;;;5056923;28;20083;-38
2022/10/05 01:53:04;;;;;;;11.25;5.80;;;13.00;86.20;;;;;;5056331;28;20033;-39
2022/10/05 01:56:05;;;;;;;10.55;5.65;;;12.90;86.60;;;;;;5056139;28;20021;-40
2022/10/05 01:58:59;;;;;;;11.88;6.47;;;12.90;86.50;;;;;;5054792;28;20041;-38
2022/10/05 02:01:37;;;;;;;12.45;6.78;;;12.90;86.50;;;;;;5055896;28;20024;-38
2022/10/05 02:04:21;;;;;;;13.38;7.15;;;12.90;86.70;;;;;;5056009;28;20102;-38
2022/10/05 02:06:49;;;;;;;11.32;6.70;;;12.90;86.80;;;;;;5055726;28;20017;-38
2022/10/05 02:09:25;;;;;;;9.63;5.45;;;12.90;86.80;;;;;;5055615;28;20380;-38
2022/10/05 02:11:59;;;;;;;10.35;6.55;;;12.80;87.10;;;;;;5055991;28;20546;-38
2022/10/05 02:14:35;;;;;;;11.95;7.18;;;12.90;87.00;;;;;;5055875;28;20021;-38
2022/10/05 02:17:07;;;;;;;9.38;5.78;;;12.90;87.00;;;;;;5056035;28;20107;-38
2022/10/05 02:19:43;;;;;;;11.15;5.60;;;12.80;87.00;;;;;;5055496;28;20056;-38
2022/10/05 02:22:29;;;;;;;9.35;5.93;;;12.90;87.10;;;;;;5055829;28;20084;-38
2022/10/05 02:25:23;;;;;;;9.07;5.75;;;12.90;86.90;;;;;;5055826;28;20025;-38
2022/10/05 02:27:55;;;;;;;13.20;6.25;;;12.90;87.10;;;;;;5055253;28;20048;-38
2022/10/05 02:30:21;;;;;;;11.07;6.35;;;12.90;87.00;;;;;;5054246;28;20044;-39
2022/10/05 02:32:55;;;;;;;11.77;7.68;;;13.00;87.00;;;;;;5055454;28;20044;-38
2022/10/05 02:35:21;;;;;;;11.23;6.47;;;13.00;87.00;;;;;;5054152;28;20029;-38
2022/10/05 02:37:58;;;;;;;9.65;5.78;;;12.90;87.00;;;;;;5037498;28;20120;-38
2022/10/05 02:40:42;;;;;;;13.65;5.78;;;13.00;87.00;;;;;;5055204;28;20032;-40
2022/10/05 02:43:19;;;;;;;12.15;6.80;;;13.00;87.10;;;;;;5053915;28;20031;-39
2022/10/05 02:46:05;;;;;;;12.43;8.20;;;13.00;87.10;;;;;;5055071;28;20031;-39
2022/10/05 02:48:50;;;;;;;12.20;6.70;;;13.00;87.00;;;;;;5055083;28;20025;-43
2022/10/05 02:51:23;;;;;;;16.13;6.97;;;13.00;86.90;;;;;;5054565;28;20074;-39
2022/10/05 02:53:55;;;;;;;14.10;6.78;;;13.00;87.10;;;;;;5055367;28;20048;-37
2022/10/05 02:56:40;;;;;;;15.60;7.55;;;12.90;87.10;;;;;;5054905;28;20040;-38
2022/10/05 02:59:20;;;;;;;13.15;6.25;;;12.80;87.50;;;;;;5054831;28;20025;-38
2022/10/05 03:01:50;;;;;;;;;;;12.80;87.50;;;;;;5055614;28;20079;-38
2022/10/05 03:04:48;;;;;;;8.65;5.50;;;12.80;87.70;;;;;;5054860;28;19912;-38
2022/10/05 03:07:19;;;;;;;14.40;6.28;;;12.70;87.90;;;;;;5053532;28;20488;-38
2022/10/05 03:10:10;;;;;;;7.60;5.70;;;12.80;88.00;;;;;;5054987;28;20029;-38
2022/10/05 03:12:42;;;;;;;10.23;5.50;;;12.80;88.00;;;;;;5054653;28;20040;-43
2022/10/05 03:15:16;;;;;;;16.17;6.80;;;12.80;87.90;;;;;;5054895;28;20465;-38
2022/10/05 03:17:56;;;;;;;9.20;6.07;;;12.80;87.90;;;;;;5054749;28;20032;-38
2022/10/05 03:20:48;;;;;;;9.98;5.82;;;12.80;87.80;;;;;;5054684;28;20037;-38
2022/10/05 03:23:26;;;;;;;9.98;6.13;;;12.80;87.90;;;;;;5054975;28;20021;-38
2022/10/05 03:26:13;;;;;;;12.90;5.32;;;12.80;88.10;;;;;;5053478;28;20547;-38
2022/10/05 03:28:59;;;;;;;9.75;6.55;;;12.80;88.20;;;;;;5053543;28;20025;-38
2022/10/05 03:31:29;;;;;;;11.27;6.15;;;12.80;88.30;;;;;;5055040;28;20501;-38
2022/10/05 03:33:58;;;;;;;14.25;6.43;;;12.80;88.30;;;;;;5054886;28;20499;-38
2022/10/05 03:36:53;;;;;;;7.88;5.60;;;12.80;88.10;;;;;;5054746;28;20412;-38
2022/10/05 03:39:35;;;;;;;9.93;6.53;;;12.80;88.40;;;;;;5053496;28;20059;-38
2022/10/05 03:42:25;;;;;;;14.40;6.57;;;12.70;88.60;;;;;;5053392;28;20032;-39
2022/10/05 03:45:18;;;;;;;14.77;7.68;;;12.70;88.70;;;;;;5054291;28;20024;-38
2022/10/05 03:47:49;;;;;;;9.88;6.00;;;12.80;88.60;;;;;;5054513;28;20124;-38
2022/10/05 03:50:22;;;;;;;10.75;6.15;;;12.80;88.60;;;;;;5054503;28;20021;-38
2022/10/05 03:53:20;;;;;;;10.90;6.50;;;12.80;88.60;;;;;;5054320;28;20155;-38
2022/10/05 03:55:59;;;;;;;15.63;6.55;;;12.70;88.80;;;;;;5054350;28;20033;-37
2022/10/05 03:58:30;;;;;;;15.93;8.25;;;12.80;88.70;;;;;;5054136;28;20155;-38
2022/10/05 04:01:05;;;;;;;8.88;6.32;;;12.80;88.70;;;;;;5054205;28;20484;-40
2022/10/05 04:03:45;;;;;;;10.18;5.22;;;12.80;88.60;;;;;;5053196;28;20044;-40
2022/10/05 04:06:17;;;;;;;10.35;6.07;;;12.80;88.40;;;;;;5053574;28;20043;-38
2022/10/05 04:09:00;;;;;;;7.13;5.65;;;12.80;88.10;;;;;;5053673;28;20386;-38
2022/10/05 04:11:32;;;;;;;12.45;6.32;;;12.80;88.20;;;;;;5054047;28;20025;-37
2022/10/05 04:14:08;;;;;;;6.97;5.40;;;12.90;88.20;;;;;;5053887;28;20485;-38
2022/10/05 04:16:43;;;;;;;8.90;5.25;;;12.80;88.10;;;;;;5053779;28;20029;-38
2022/10/05 04:19:24;;;;;;;8.88;5.28;;;13.00;88.00;;;;;;5053482;28;20048;-38
2022/10/05 04:22:11;;;;;;;6.75;5.25;;;13.00;87.90;;;;;;5053811;28;20033;-38
2022/10/05 04:24:39;;;;;;;8.95;5.50;;;13.00;87.80;;;;;;5053700;28;20025;-37
2022/10/05 04:27:11;;;;;;;8.60;5.20;;;13.00;87.80;;;;;;5053703;28;20075;-38
2022/10/05 04:29:55;;;;;;;6.70;5.20;;;13.10;87.50;;;;;;5053454;28;20385;-38
2022/10/05 04:32:35;;;;;;;9.48;5.78;;;13.30;87.00;;;;;;5052541;28;20461;-37
2022/10/05 04:35:24;;;;;;;10.13;5.35;;;13.30;86.80;;;;;;5053467;28;20108;-38
2022/10/05 04:37:56;;;;;;;10.38;6.25;;;13.30;86.70;;;;;;5053616;28;20109;-40
2022/10/05 04:40:43;;;;;;;8.18;4.97;;;13.30;86.70;;;;;;5053304;28;20021;-37
2022/10/05 04:43:17;;;;;;;7.75;4.95;;;13.30;86.30;;;;;;5052016;28;20066;-38
2022/10/05 04:45:48;;;;;;;7.78;5.15;;;13.40;86.00;;;;;;5053513;28;20492;-38
2022/10/05 04:48:52;;;;;;;9.00;4.90;;;13.30;86.10;;;;;;5053422;28;20032;-38
2022/10/05 04:51:45;;;;;;;7.43;5.30;;;13.40;85.90;;;;;;5053327;28;20128;-38
2022/10/05 04:54:33;;;;;;;10.38;6.22;;;13.40;85.70;;;;;;5053238;28;20021;-38
2022/10/05 04:57:02;;;;;;;9.73;5.40;;;13.40;85.80;;;;;;5053453;28;20180;-38
2022/10/05 04:59:46;;;;;;;6.45;4.65;;;13.30;85.90;;;;;;5053272;28;20468;-38
2022/10/05 05:02:24;;;;;;;9.23;5.57;;;13.30;86.00;;;;;;5052975;28;20381;-38
2022/10/05 05:05:13;;;;;;;9.07;4.90;;;13.40;85.90;;;;;;5052980;28;20025;-40
2022/10/05 05:08:05;;;;;;;6.88;5.53;;;13.40;85.60;;;;;;5051656;28;20025;-39
2022/10/05 05:10:56;;;;;;;10.13;5.10;;;13.50;85.30;;;;;;5052874;28;20025;-38
2022/10/05 05:13:47;;;;;;;13.75;6.15;;;13.50;85.30;;;;;;5052950;28;20491;-38
2022/10/05 05:16:38;;;;;;;9.10;5.07;;;13.40;85.50;;;;;;5053253;28;20125;-38
2022/10/05 05:19:03;;;;;;;13.43;5.57;;;13.50;85.20;;;;;;5052613;28;20119;-39
2022/10/05 05:21:38;;;;;;;11.40;6.22;;;13.60;84.80;;;;;;5052643;28;20051;-38
2022/10/05 05:24:20;;;;;;;8.27;5.47;;;13.60;84.70;;;;;;5052963;28;20393;-38
2022/10/05 05:26:46;;;;;;;11.80;5.70;;;13.60;84.70;;;;;;5052827;28;20108;-37
2022/10/05 17:20:48;;;;;;;6.03;3.28;;;18.80;67.80;;;;;;5070559;28;20480;-38
2022/10/05 17:23:17;;;;;;;4.97;2.25;;;18.80;67.80;;;;;;5070218;28;20198;-39
2022/10/05 17:25:52;;;;;;;6.15;2.33;;;18.70;68.00;;;;;;5069929;28;20032;-38
2022/10/05 17:28:59;;;;;;;5.72;2.67;;;18.60;68.30;;;;;;5070132;28;20365;-38
2022/10/05 17:31:27;;;;;;;6.55;2.50;;;18.50;68.40;;;;;;5047504;28;20036;-41
2022/10/05 17:33:59;;;;;;;12.93;2.38;;;18.60;68.20;;;;;;5047691;28;20065;-39
2022/10/05 17:36:42;;;;;;;6.30;2.17;;;18.60;67.90;;;;;;5058507;28;20029;-37
2022/10/05 17:39:19;;;;;;;9.32;2.63;;;18.60;67.40;;;;;;5069357;28;20024;-38
2022/10/05 17:41:45;;;;;;;3.95;1.95;;;18.60;67.50;;;;;;5069709;28;20021;-39
2022/10/05 17:44:19;;;;;;;4.47;2.15;;;18.50;67.70;;;;;;5069268;28;20222;-39
2022/10/05 17:46:49;;;;;;;4.38;2.28;;;18.50;67.50;;;;;;5069356;28;20045;-39
2022/10/05 17:49:37;;;;;;;2.38;1.33;;;18.50;67.40;;;;;;5051932;28;20056;-40
2022/10/05 17:55:32;;;;;;;19.20;2.88;;;18.50;67.60;;;;;;5069634;28;20071;-39
2022/10/05 17:58:24;;;;;;;5.80;1.63;;;18.40;67.90;;;;;;5069585;28;20040;-39
2022/10/05 18:00:56;;;;;;;2.10;1.77;;;18.40;67.30;;;;;;5069409;28;20531;-38
2022/10/05 18:03:38;;;;;;;2.45;1.75;;;18.40;67.20;;;;;;5069643;28;20037;-38
2022/10/05 18:06:36;;;;;;;2.85;1.90;;;18.40;67.20;;;;;;5069224;28;20067;-39
2022/10/05 18:09:19;;;;;;;6.90;1.90;;;18.40;67.00;;;;;;5068808;28;20464;-39
2022/10/05 18:12:05;;;;;;;4.10;2.03;;;18.40;66.90;;;;;;5069620;28;20419;-37
2022/10/05 18:14:56;;;;;;;1.35;1.10;;;18.30;67.10;;;;;;5067591;28;20040;-39
2022/10/05 18:17:45;;;;;;;3.70;2.03;;;18.30;67.00;;;;;;5068801;28;20086;-40
2022/10/05 18:20:33;;;;;;;3.53;1.83;;;18.30;67.00;;;;;;5068693;28;20044;-47
2022/10/05 18:23:02;;;;;;;4.18;1.95;;;18.30;67.10;;;;;;5068881;28;20017;-39
2022/10/05 18:25:43;;;;;;;7.32;2.63;;;18.30;67.10;;;;;;5068541;28;20021;-39
2022/10/05 18:28:22;;;;;;;5.20;2.20;;;18.30;67.40;;;;;;5069458;28;20147;-40
2022/10/05 18:31:16;;;;;;;5.80;2.08;;;18.30;67.30;;;;;;5062531;28;20469;-39
2022/10/05 18:34:06;;;;;;;5.82;1.85;;;18.30;67.30;;;;;;5055839;28;20358;-40
2022/10/05 18:36:50;;;;;;;5.65;1.65;;;18.30;67.30;;;;;;5055599;28;20421;-40
2022/10/05 18:39:44;;;;;;;1.95;1.50;;;18.30;67.20;;;;;;5054285;28;20070;-38
2022/10/05 18:42:37;;;;;;;4.15;1.70;;;18.30;67.40;;;;;;5055431;28;20104;-39
2022/10/05 18:45:26;;;;;;;3.67;1.98;;;18.30;67.60;;;;;;5055745;28;20326;-39
2022/10/05 18:48:13;;;;;;;3.80;2.10;;;18.30;68.00;;;;;;5056322;28;20021;-39
2022/10/05 18:51:12;;;;;;;4.28;1.98;;;18.30;68.00;;;;;;5055388;28;20537;-39
2022/10/05 18:53:43;;;;;;;2.42;1.90;;;18.30;67.80;;;;;;5055477;28;20428;-40
2022/10/05 18:56:47;;;;;;;2.42;1.75;;;18.30;67.60;;;;;;5055514;28;20484;-39
2022/10/05 18:59:39;;;;;;;3.60;1.58;;;18.30;67.40;;;;;;5056015;28;20037;-40
2022/10/05 19:02:26;;;;;;;4.68;1.88;;;18.30;67.70;;;;;;5055178;28;20025;-39
2022/10/05 19:05:07;;;;;;;5.60;1.90;;;18.30;67.70;;;;;;5055388;28;20078;-40
2022/10/05 19:07:58;;;;;;;2.70;1.80;;;18.30;67.90;;;;;;5055442;28;20029;-39
2022/10/05 19:10:49;;;;;;;3.00;1.52;;;18.30;67.60;;;;;;5053614;28;20025;-40
2022/10/05 19:13:29;;;;;;;1.42;1.20;;;18.30;68.00;;;;;;5054933;28;20028;-39
2022/10/05 19:16:21;;;;;;;4.43;1.83;;;18.30;67.90;;;;;;5055020;28;20090;-39
2022/10/05 19:19:05;;;;;;;2.50;1.95;;;18.30;68.10;;;;;;5054633;28;20097;-39
2022/10/05 19:21:49;;;;;;;4.30;1.50;;;18.20;68.30;;;;;;5054856;28;20384;-39
2022/10/05 19:25:08;;;;;;;1.85;1.45;;;18.30;68.20;;;;;;5054706;28;20067;-39
2022/10/05 19:27:48;;;;;;;3.15;1.70;;;18.20;68.20;;;;;;5052624;28;20590;-40
2022/10/05 19:30:26;;;;;;;7.23;1.83;;;18.20;68.30;;;;;;5053032;28;20036;-38
2022/10/05 19:33:17;;;;;;;4.30;1.60;;;18.30;68.10;;;;;;5054021;28;20767;-39
2022/10/05 19:35:57;;;;;;;4.75;1.60;;;18.30;68.20;;;;;;5054886;28;20501;-39
2022/10/05 19:38:30;;;;;;;5.20;1.45;;;18.30;67.80;;;;;;5054507;28;20043;-39
2022/10/05 19:41:12;;;;;;;5.43;1.77;;;18.30;67.80;;;;;;5054634;28;20472;-39
2022/10/05 19:43:49;;;;;;;4.90;1.65;;;18.30;67.90;;;;;;5053733;28;20444;-47
2022/10/05 19:46:50;;;;;;;3.20;2.30;;;18.30;68.00;;;;;;5054856;28;20029;-40
2022/10/05 19:49:47;;;;;;;4.65;1.40;;;18.30;67.80;;;;;;5053549;28;20040;-39
2022/10/05 19:52:27;;;;;;;2.63;1.70;;;18.40;67.70;;;;;;5054544;28;20502;-37
2022/10/05 19:55:15;;;;;;;5.80;2.13;;;18.30;67.70;;;;;;5057166;28;20040;-39
2022/10/05 19:58:00;;;;;;;2.72;1.60;;;18.30;68.00;;;;;;5040665;28;20029;-39
2022/10/05 20:00:34;;;;;;;2.92;1.60;;;18.40;67.90;;;;;;5053563;28;20025;-39
2022/10/05 20:03:25;;;;;;;2.40;1.50;;;18.40;68.00;;;;;;5054129;28;20021;-40
2022/10/05 20:05:52;;;;;;;3.17;1.50;;;18.40;67.90;;;;;;5054600;28;20021;-39
2022/10/05 20:08:20;;;;;;;3.78;2.00;;;18.50;67.80;;;;;;5054355;28;20029;-39
2022/10/05 20:11:12;;;;;;;4.47;1.92;;;18.40;67.90;;;;;;5054750;28;20020;-41
2022/10/05 20:14:01;;;;;;;3.67;1.73;;;18.40;68.10;;;;;;5052686;28;20477;-39
2022/10/05 20:22:27;;;;;;;3.78;1.65;;;18.30;68.50;;;;;;5054187;28;20059;-39
2022/10/05 20:24:55;;;;;;;5.25;2.33;;;18.40;68.40;;;;;;5053026;28;20013;-39
2022/10/05 20:27:40;;;;;;;8.77;2.08;;;18.40;68.30;;;;;;5054032;28;20021;-39
2022/10/05 20:30:08;;;;;;;7.50;1.95;;;18.40;68.30;;;;;;5053673;28;20411;-40
2022/10/05 20:32:33;;;;;;;2.05;1.30;;;18.50;68.30;;;;;;5053585;28;20075;-39
2022/10/05 20:34:59;;;;;;;2.63;1.40;;;18.40;68.60;;;;;;5053588;28;20033;-39
2022/10/05 20:37:25;;;;;;;4.68;2.10;;;18.40;68.60;;;;;;5053799;28;20021;-39
2022/10/05 20:39:51;;;;;;;3.78;1.40;;;18.50;68.40;;;;;;5052410;28;20033;-39
2022/10/05 20:42:22;;;;;;;3.85;1.80;;;18.40;68.80;;;;;;5054915;28;20406;-50
2022/10/05 20:44:48;;;;;;;4.13;1.60;;;18.40;68.80;;;;;;5053879;28;20041;-47
2022/10/05 20:47:13;;;;;;;3.45;1.83;;;18.50;68.90;;;;;;5053403;28;20029;-48
2022/10/05 20:49:40;;;;;;;3.15;1.98;;;18.40;69.00;;;;;;5053672;28;20021;-49
2022/10/05 20:52:09;;;;;;;3.03;1.70;;;18.50;69.00;;;;;;5052119;28;20021;-49
2022/10/05 20:54:35;;;;;;;2.72;1.33;;;18.50;69.10;;;;;;5053159;28;20025;-47
2022/10/05 20:57:01;;;;;;;9.13;1.50;;;18.50;69.10;;;;;;5053361;28;20029;-51
2022/10/05 20:59:27;;;;;;;1.60;1.38;;;18.50;69.00;;;;;;5051898;28;20381;-49
2022/10/05 21:01:53;;;;;;;3.58;1.50;;;18.50;69.20;;;;;;5053287;28;20029;-48
2022/10/05 21:04:24;;;;;;;2.38;1.73;;;18.50;69.30;;;;;;5053357;28;20044;-48
2022/10/05 21:06:51;;;;;;;3.88;1.83;;;18.50;69.40;;;;;;5053715;28;20025;-48
2022/10/05 21:09:20;;;;;;;3.88;1.77;;;18.50;69.50;;;;;;5053587;28;20025;-48
2022/10/05 21:11:51;;;;;;;2.92;1.65;;;18.50;69.70;;;;;;5053270;28;20035;-48
2022/10/05 21:14:17;;;;;;;6.85;1.63;;;18.40;69.80;;;;;;5053131;28;20029;-48
2022/10/05 21:16:44;;;;;;;4.10;2.25;;;18.40;70.00;;;;;;5053195;28;20035;-48
2022/10/05 21:19:12;;;;;;;7.47;2.00;;;18.50;70.10;;;;;;5053073;28;20044;-48
2022/10/05 21:21:38;;;;;;;2.70;1.48;;;18.40;70.20;;;;;;5053230;28;20025;-51
2022/10/05 21:24:05;;;;;;;3.13;1.83;;;18.40;70.30;;;;;;5052810;28;20067;-48
2022/10/05 21:26:31;;;;;;;3.05;1.65;;;18.40;70.40;;;;;;5053242;28;20423;-47
2022/10/05 21:28:58;;;;;;;4.30;2.03;;;18.40;70.50;;;;;;5053034;28;20059;-48
2022/10/05 21:31:25;;;;;;;5.78;2.13;;;18.50;70.60;;;;;;5053193;28;20464;-47
2022/10/05 21:33:50;;;;;;;1.75;1.50;;;18.40;70.80;;;;;;5053127;28;20036;-47
2022/10/05 21:36:19;;;;;;;6.75;1.15;;;18.40;71.10;;;;;;5051441;28;20079;-50
2022/10/05 21:38:49;;;;;;;3.75;1.85;;;18.40;71.40;;;;;;5052941;28;20025;-48
2022/10/05 21:41:16;;;;;;;2.85;1.90;;;18.40;71.50;;;;;;5052781;28;20036;-47
2022/10/05 21:43:42;;;;;;;3.97;2.78;;;18.30;71.80;;;;;;5052494;28;20028;-48
2022/10/05 21:46:09;;;;;;;5.75;1.92;;;18.40;71.80;;;;;;5052916;28;20025;-47
2022/10/05 21:48:38;;;;;;;4.70;1.85;;;18.50;71.90;;;;;;5051682;28;20029;-48
2022/10/05 21:51:06;;;;;;;4.13;2.08;;;18.50;71.90;;;;;;5051948;28;20025;-48
2022/10/05 21:53:36;;;;;;;3.83;1.95;;;18.50;72.30;;;;;;5052915;28;20029;-48
2022/10/05 21:56:06;;;;;;;8.10;2.45;;;18.40;72.70;;;;;;5053190;28;20069;-47
2022/10/05 21:58:32;;;;;;;2.72;2.08;;;18.40;73.60;;;;;;5052875;28;20155;-47
2022/10/05 22:00:58;;;;;;;6.18;2.42;;;18.30;73.90;;;;;;5053024;28;20025;-48
2022/10/05 22:03:24;;;;;;;7.22;2.30;;;18.20;74.60;;;;;;5052605;28;20028;-47
2022/10/05 22:05:49;;;;;;;4.93;1.85;;;18.20;75.30;;;;;;5053894;28;20067;-48
2022/10/05 22:08:23;;;;;;;4.68;2.75;;;17.90;76.00;;;;;;5055608;28;20108;-47
2022/10/05 22:10:49;;;;;;;1.88;1.35;;;17.80;76.50;;;;;;5057850;28;20029;-47
2022/10/05 22:13:16;;;;;;;6.63;1.05;;;17.70;75.20;;;;;;5057848;28;20477;-48
2022/10/05 22:15:42;;;;;;;4.97;1.52;;;17.60;75.60;;;;;;5058752;28;20584;-47
2022/10/05 22:18:15;;;;;;;2.40;1.67;;;17.50;75.90;;;;;;5058067;28;20032;-48
2022/10/05 22:20:41;;;;;;;1.25;1.10;;;17.50;75.80;;;;;;5058138;28;20037;-47
2022/10/05 22:23:06;;;;;;;4.13;1.63;;;17.40;76.50;;;;;;5054863;28;20025;-49
2022/10/05 22:25:33;;;;;;;2.22;1.13;;;17.30;77.10;;;;;;5056534;28;20458;-49
2022/10/05 22:27:59;;;;;;;1.52;1.10;;;17.20;77.40;;;;;;5055551;28;20109;-50
2022/10/05 22:30:26;;;;;;;3.35;0.98;;;17.20;77.10;;;;;;5057798;28;20028;-47
2022/10/05 22:32:52;;;;;;;3.85;1.58;;;17.10;77.20;;;;;;5058750;28;20029;-47
2022/10/05 22:35:17;;;;;;;2.20;1.75;;;17.10;77.30;;;;;;5055916;28;20024;-49
2022/10/05 22:37:44;;;;;;;2.42;1.10;;;17.00;77.20;;;;;;5055626;28;20025;-49
2022/10/05 22:40:10;;;;;;;2.10;1.20;;;17.00;77.40;;;;;;5054343;28;20035;-48
2022/10/05 22:42:40;;;;;;;7.35;1.60;;;17.00;77.40;;;;;;5056119;28;20428;-48
2022/10/05 22:45:07;;;;;;;4.80;1.67;;;17.00;77.50;;;;;;5056019;28;20018;-47
2022/10/05 22:47:33;;;;;;;4.68;1.30;;;16.90;77.70;;;;;;5055887;28;20033;-47
2022/10/05 22:50:00;;;;;;;3.30;1.40;;;16.90;78.00;;;;;;5058049;28;20559;-47
2022/10/05 22:52:25;;;;;;;2.17;1.33;;;16.80;78.20;;;;;;5057655;28;20029;-47
2022/10/05 22:54:51;;;;;;;3.15;1.50;;;16.80;78.80;;;;;;5055541;28;20078;-48
2022/10/05 22:57:17;;;;;;;9.40;1.98;;;16.80;79.30;;;;;;5055505;28;20036;-48
2022/10/05 22:59:44;;;;;;;5.93;1.80;;;16.70;80.10;;;;;;5056557;28;20060;-47
2022/10/05 23:02:11;;;;;;;3.97;1.27;;;16.50;82.00;;;;;;5055349;28;20029;-48
2022/10/05 23:04:36;;;;;;;4.57;1.83;;;16.30;83.50;;;;;;5055546;28;20468;-49
2022/10/05 23:07:02;;;;;;;3.28;1.88;;;16.00;85.20;;;;;;5055109;28;20029;-46
2022/10/05 23:09:28;;;;;;;1.95;1.70;;;15.80;87.00;;;;;;5055189;28;20043;-48
2022/10/05 23:11:54;;;;;;;1.17;1.08;;;15.50;87.30;;;;;;5054217;28;20056;-48
2022/10/05 23:14:20;;;;;;;2.47;1.17;;;15.30;86.70;;;;;;5055613;28;20052;-48
2022/10/05 23:16:46;;;;;;;2.08;1.10;;;15.20;86.70;;;;;;5055008;28;20025;-48
2022/10/05 23:19:12;;;;;;;3.40;1.60;;;15.00;87.30;;;;;;5055175;28;20048;-47
2022/10/05 23:21:38;;;;;;;1.20;1.00;;;14.80;87.20;;;;;;5055082;28;20428;-47
2022/10/05 23:24:05;;;;;;;1.20;1.10;;;14.80;87.10;;;;;;5055187;28;20123;-48
2022/10/05 23:26:31;;;;;;;3.33;1.13;;;14.60;87.80;;;;;;5053568;28;20086;-50
2022/10/05 23:28:57;;;;;;;4.40;1.20;;;14.50;87.40;;;;;;5053642;28;20078;-46
2022/10/05 23:31:30;;;;;;;2.38;0.90;;;14.50;87.90;;;;;;5053599;28;20074;-52
2022/10/05 23:33:55;;;;;;;2.85;0.98;;;14.40;88.00;;;;;;5053569;28;20025;-48
2022/10/05 23:36:24;;;;;;;2.25;1.00;;;14.50;88.00;;;;;;5054808;28;20043;-46
2022/10/05 23:38:49;;;;;;;6.35;1.27;;;14.40;88.00;;;;;;5054731;28;20036;-47
2022/10/05 23:41:16;;;;;;;2.28;1.15;;;14.30;87.60;;;;;;5055111;28;20424;-48
2022/10/05 23:43:42;;;;;;;1.13;1.02;;;14.30;87.60;;;;;;5054359;28;20021;-48
2022/10/05 23:46:08;;;;;;;4.10;1.08;;;14.30;87.20;;;;;;5054485;28;20099;-47
2022/10/05 23:48:36;;;;;;;1.83;1.27;;;14.20;86.70;;;;;;5054671;28;20036;-46
2022/10/05 23:51:03;;;;;;;0.95;0.77;;;14.20;85.90;;;;;;5053165;28;20124;-49
2022/10/05 23:53:28;;;;;;;1.20;0.73;;;14.20;85.90;;;;;;5054226;28;20424;-46
2022/10/05 23:55:54;;;;;;;5.05;1.20;;;14.20;86.10;;;;;;5054303;28;20075;-48
2022/10/05 23:58:21;;;;;;;2.60;0.70;;;14.20;85.40;;;;;;5054103;28;20401;-49
